createdAt,value
2018-03-04T00:00:51.903Z,72.88
2018-03-04T00:01:51.834Z,73.21
2018-03-04T00:02:51.768Z,73.11
2018-03-04T00:03:51.713Z,73.11
2018-03-04T00:04:51.633Z,73.69
2018-03-04T00:05:51.594Z,73.02
2018-03-04T00:06:51.526Z,73.59
2018-03-04T00:07:51.426Z,73.02
2018-03-04T00:08:51.435Z,73.21
2018-03-04T00:09:51.301Z,73.46
2018-03-04T00:10:51.247Z,73.02
2018-03-04T00:11:51.162Z,73.21
2018-03-04T00:12:51.105Z,73.02
2018-03-04T00:13:51.024Z,73.21
2018-03-04T00:14:50.956Z,73.30
2018-03-04T00:15:50.931Z,73.11
2018-03-04T00:16:50.820Z,73.40
2018-03-04T00:17:50.758Z,73.02
2018-03-04T00:18:50.690Z,73.21
2018-03-04T00:19:50.624Z,73.40
2018-03-04T00:20:50.577Z,73.30
2018-03-04T00:21:50.489Z,73.59
2018-03-04T00:22:50.434Z,73.21
2018-03-04T00:23:50.352Z,72.83
2018-03-04T00:24:50.283Z,73.17
2018-03-04T00:25:50.211Z,72.88
2018-03-04T00:26:50.145Z,73.46
2018-03-04T00:27:50.077Z,73.59
2018-03-04T00:28:50.028Z,73.30
2018-03-04T00:29:49.962Z,73.36
2018-03-04T00:30:49.879Z,73.59
2018-03-04T00:31:49.827Z,73.40
2018-03-04T00:32:49.748Z,73.30
2018-03-04T00:33:49.694Z,73.21
2018-03-04T00:34:49.633Z,73.11
2018-03-04T00:35:49.538Z,72.92
2018-03-04T00:36:49.497Z,73.11
2018-03-04T00:37:49.426Z,73.21
2018-03-04T00:38:49.336Z,73.40
2018-03-04T00:39:49.287Z,73.21
2018-03-04T00:40:49.215Z,72.44
2018-03-04T00:41:49.147Z,72.83
2018-03-04T00:42:49.074Z,72.92
2018-03-04T00:43:49.017Z,73.02
2018-03-04T00:44:48.945Z,72.92
2018-03-04T00:45:48.875Z,72.63
2018-03-04T00:46:48.813Z,72.83
2018-03-04T00:47:48.742Z,72.73
2018-03-04T00:48:48.682Z,72.92
2018-03-04T00:49:48.620Z,73.02
2018-03-04T00:50:48.546Z,73.02
2018-03-04T00:51:48.453Z,72.63
2018-03-04T00:52:48.387Z,72.63
2018-03-04T00:53:48.316Z,72.63
2018-03-04T00:54:48.268Z,72.92
2018-03-04T00:55:48.187Z,72.54
2018-03-04T00:56:48.123Z,73.11
2018-03-04T00:57:48.065Z,72.34
2018-03-04T00:58:48.002Z,73.11
2018-03-04T00:59:47.915Z,72.63
2018-03-04T01:00:47.852Z,72.73
2018-03-04T01:01:47.795Z,73.02
2018-03-04T01:02:47.710Z,72.92
2018-03-04T01:03:47.646Z,72.63
2018-03-04T01:04:47.609Z,72.83
2018-03-04T01:05:47.523Z,72.63
2018-03-04T01:06:47.461Z,73.02
2018-03-04T01:07:47.377Z,73.02
2018-03-04T01:08:47.315Z,72.83
2018-03-04T01:09:47.239Z,72.92
2018-03-04T01:10:47.191Z,73.02
2018-03-04T01:11:47.103Z,72.54
2018-03-04T01:12:47.057Z,72.06
2018-03-04T01:13:46.966Z,72.63
2018-03-04T01:14:46.922Z,72.34
2018-03-04T01:15:46.833Z,72.73
2018-03-04T01:16:46.762Z,72.34
2018-03-04T01:17:46.715Z,72.34
2018-03-04T01:18:46.635Z,72.73
2018-03-04T01:19:46.578Z,72.83
2018-03-04T01:20:46.504Z,72.54
2018-03-04T01:21:46.429Z,72.34
2018-03-04T01:22:46.371Z,71.97
2018-03-04T01:23:46.334Z,71.97
2018-03-04T01:24:46.236Z,72.44
2018-03-04T01:25:46.172Z,72.25
2018-03-04T01:26:46.092Z,72.06
2018-03-04T01:27:46.026Z,72.06
2018-03-04T01:28:45.951Z,71.91
2018-03-04T01:29:45.909Z,71.87
2018-03-04T01:30:45.873Z,71.87
2018-03-04T01:31:45.793Z,71.87
2018-03-04T01:32:45.702Z,71.97
2018-03-04T01:33:45.620Z,72.34
2018-03-04T01:34:45.562Z,72.34
2018-03-04T01:35:45.516Z,71.71
2018-03-04T01:36:45.481Z,72.29
2018-03-04T01:37:45.358Z,72.00
2018-03-04T01:38:45.292Z,72.09
2018-03-04T01:39:45.221Z,71.91
2018-03-04T01:40:45.158Z,72.00
2018-03-04T01:41:45.105Z,72.00
2018-03-04T01:42:45.018Z,72.38
2018-03-04T01:43:44.950Z,72.19
2018-03-04T01:44:44.895Z,72.19
2018-03-04T01:45:44.822Z,72.67
2018-03-04T01:46:44.761Z,73.05
2018-03-04T01:47:44.680Z,72.48
2018-03-04T01:48:44.636Z,73.44
2018-03-04T01:49:44.540Z,73.02
2018-03-04T01:50:44.472Z,72.92
2018-03-04T01:51:44.493Z,73.02
2018-03-04T01:52:44.354Z,72.73
2018-03-04T01:53:44.285Z,73.02
2018-03-04T01:54:44.223Z,73.59
2018-03-04T01:55:44.155Z,73.40
2018-03-04T01:56:44.086Z,73.50
2018-03-04T01:57:44.019Z,74.16
2018-03-04T01:58:43.954Z,74.16
2018-03-04T01:59:43.872Z,73.88
2018-03-04T02:00:43.797Z,73.79
2018-03-04T02:01:43.733Z,73.79
2018-03-04T02:02:43.682Z,73.88
2018-03-04T02:03:43.606Z,73.79
2018-03-04T02:04:43.550Z,73.59
2018-03-04T02:05:43.485Z,73.94
2018-03-04T02:06:43.407Z,73.84
2018-03-04T02:07:43.342Z,73.75
2018-03-04T02:08:43.274Z,73.27
2018-03-04T02:09:43.245Z,73.36
2018-03-04T02:10:43.120Z,73.17
2018-03-04T02:11:43.049Z,73.36
2018-03-04T02:12:42.981Z,72.98
2018-03-04T02:13:42.910Z,73.08
2018-03-04T02:14:42.883Z,73.08
2018-03-04T02:15:42.775Z,73.55
2018-03-04T02:16:42.712Z,73.43
2018-03-04T02:17:42.693Z,73.75
2018-03-04T02:18:42.601Z,73.14
2018-03-04T02:19:42.506Z,73.71
2018-03-04T02:20:42.437Z,73.14
2018-03-04T02:21:42.365Z,73.52
2018-03-04T02:22:42.292Z,73.52
2018-03-04T02:23:42.257Z,73.23
2018-03-04T02:24:42.158Z,73.61
2018-03-04T02:25:42.096Z,73.52
2018-03-04T02:26:42.022Z,73.61
2018-03-04T02:27:41.971Z,73.43
2018-03-04T02:28:41.898Z,73.43
2018-03-04T02:29:41.831Z,73.43
2018-03-04T02:30:41.748Z,73.52
2018-03-04T02:31:41.727Z,73.33
2018-03-04T02:32:41.637Z,73.14
2018-03-04T02:33:41.568Z,73.23
2018-03-04T02:34:41.500Z,73.52
2018-03-04T02:35:41.396Z,73.52
2018-03-04T02:36:41.353Z,73.52
2018-03-04T02:37:41.268Z,73.71
2018-03-04T02:38:41.194Z,73.23
2018-03-04T02:39:41.138Z,73.61
2018-03-04T02:40:41.069Z,73.52
2018-03-04T02:41:41.005Z,73.43
2018-03-04T02:42:40.933Z,73.43
2018-03-04T02:43:40.865Z,73.52
2018-03-04T02:44:40.783Z,73.14
2018-03-04T02:45:40.700Z,73.43
2018-03-04T02:46:40.662Z,73.23
2018-03-04T02:47:40.579Z,73.61
2018-03-04T02:48:40.520Z,73.14
2018-03-04T02:49:40.432Z,73.61
2018-03-04T02:50:40.369Z,73.14
2018-03-04T02:51:40.294Z,73.14
2018-03-04T02:52:40.221Z,73.14
2018-03-04T02:53:40.155Z,73.23
2018-03-04T02:54:40.099Z,73.14
2018-03-04T02:55:40.016Z,73.71
2018-03-04T02:56:39.944Z,73.23
2018-03-04T02:57:39.876Z,73.14
2018-03-04T02:58:39.810Z,73.52
2018-03-04T02:59:39.733Z,73.43
2018-03-04T03:00:39.679Z,73.14
2018-03-04T03:01:39.594Z,73.71
2018-03-04T03:02:39.563Z,73.23
2018-03-04T03:03:39.476Z,73.52
2018-03-04T03:04:39.389Z,73.80
2018-03-04T03:05:39.335Z,73.14
2018-03-04T03:06:39.254Z,73.71
2018-03-04T03:07:39.185Z,73.52
2018-03-04T03:08:39.128Z,73.23
2018-03-04T03:09:39.075Z,73.23
2018-03-04T03:10:38.971Z,73.23
2018-03-04T03:11:38.904Z,73.43
2018-03-04T03:12:38.851Z,73.43
2018-03-04T03:13:38.771Z,73.33
2018-03-04T03:14:38.699Z,73.61
2018-03-04T03:15:38.649Z,73.52
2018-03-04T03:16:38.577Z,73.33
2018-03-04T03:17:38.495Z,73.71
2018-03-04T03:18:38.427Z,73.33
2018-03-04T03:19:38.370Z,73.04
2018-03-04T03:20:38.288Z,73.33
2018-03-04T03:21:38.226Z,73.33
2018-03-04T03:22:38.148Z,73.43
2018-03-04T03:23:38.091Z,73.52
2018-03-04T03:24:38.012Z,73.23
2018-03-04T03:25:37.972Z,72.94
2018-03-04T03:26:37.897Z,73.04
2018-03-04T03:27:37.805Z,73.52
2018-03-04T03:28:37.739Z,72.94
2018-03-04T03:29:37.683Z,73.14
2018-03-04T03:30:37.614Z,73.14
2018-03-04T03:31:37.544Z,72.85
2018-03-04T03:32:37.479Z,72.37
2018-03-04T03:33:37.406Z,72.66
2018-03-04T03:34:37.328Z,73.04
2018-03-04T03:35:37.258Z,72.85
2018-03-04T03:36:37.239Z,72.94
2018-03-04T03:37:37.144Z,72.08
2018-03-04T03:38:37.047Z,72.56
2018-03-04T03:39:36.978Z,72.47
2018-03-04T03:40:36.928Z,72.28
2018-03-04T03:41:36.855Z,72.18
2018-03-04T03:42:36.776Z,71.89
2018-03-04T03:43:36.720Z,71.42
2018-03-04T03:44:36.649Z,71.47
2018-03-04T03:45:36.580Z,71.42
2018-03-04T03:46:36.522Z,71.86
2018-03-04T03:47:36.442Z,71.42
2018-03-04T03:48:36.355Z,71.61
2018-03-04T03:49:36.313Z,71.38
2018-03-04T03:50:36.229Z,71.00
2018-03-04T03:51:36.176Z,70.90
2018-03-04T03:52:36.086Z,71.09
2018-03-04T03:53:36.017Z,70.61
2018-03-04T03:54:35.939Z,70.42
2018-03-04T03:55:35.884Z,70.61
2018-03-04T03:56:35.818Z,70.71
2018-03-04T03:57:35.749Z,70.42
2018-03-04T03:58:35.663Z,70.14
2018-03-04T03:59:35.606Z,70.23
2018-03-04T04:00:35.538Z,70.23
2018-03-04T04:01:35.472Z,70.52
2018-03-04T04:02:35.406Z,69.66
2018-03-04T04:03:35.324Z,69.85
2018-03-04T04:04:35.269Z,68.90
2018-03-04T04:05:35.201Z,69.18
2018-03-04T04:06:35.112Z,68.99
2018-03-04T04:07:35.055Z,69.18
2018-03-04T04:08:34.976Z,68.61
2018-03-04T04:09:34.897Z,68.99
2018-03-04T04:10:34.825Z,68.99
2018-03-04T04:11:34.769Z,69.09
2018-03-04T04:12:34.701Z,68.80
2018-03-04T04:13:34.629Z,68.99
2018-03-04T04:14:34.545Z,68.99
2018-03-04T04:15:34.487Z,69.18
2018-03-04T04:16:34.398Z,68.80
2018-03-04T04:17:34.338Z,69.09
2018-03-04T04:18:34.285Z,69.95
2018-03-04T04:19:34.199Z,69.56
2018-03-04T04:20:34.142Z,69.47
2018-03-04T04:21:34.059Z,69.56
2018-03-04T04:22:33.983Z,69.56
2018-03-04T04:23:33.920Z,69.85
2018-03-04T04:24:33.869Z,69.95
2018-03-04T04:25:33.802Z,69.89
2018-03-04T04:26:33.708Z,70.46
2018-03-04T04:27:33.636Z,69.98
2018-03-04T04:28:33.576Z,69.70
2018-03-04T04:29:33.517Z,69.50
2018-03-04T04:30:33.473Z,69.76
2018-03-04T04:31:33.362Z,69.27
2018-03-04T04:32:33.293Z,68.99
2018-03-04T04:33:33.217Z,69.09
2018-03-04T04:34:33.153Z,69.66
2018-03-04T04:35:33.112Z,68.99
2018-03-04T04:36:33.042Z,68.61
2018-03-04T04:37:32.946Z,69.47
2018-03-04T04:38:32.889Z,69.37
2018-03-04T04:39:32.822Z,69.31
2018-03-04T04:40:32.757Z,69.02
2018-03-04T04:41:32.690Z,69.37
2018-03-04T04:42:32.601Z,68.90
2018-03-04T04:43:32.550Z,69.09
2018-03-04T04:44:32.473Z,69.09
2018-03-04T04:45:32.414Z,69.12
2018-03-04T04:46:32.340Z,69.27
2018-03-04T04:47:32.310Z,69.27
2018-03-04T04:48:32.192Z,68.90
2018-03-04T04:49:32.115Z,68.51
2018-03-04T04:50:32.066Z,68.13
2018-03-04T04:51:31.981Z,67.55
2018-03-04T04:52:31.908Z,67.65
2018-03-04T04:53:31.856Z,66.99
2018-03-04T04:54:31.771Z,66.66
2018-03-04T04:55:31.705Z,67.08
2018-03-04T04:56:31.625Z,66.19
2018-03-04T04:57:31.561Z,66.00
2018-03-04T04:58:31.490Z,65.71
2018-03-04T04:59:31.416Z,65.84
2018-03-04T05:00:31.365Z,66.50
2018-03-04T05:01:31.276Z,66.70
2018-03-04T05:02:31.209Z,66.60
2018-03-04T05:03:31.169Z,66.38
2018-03-04T05:04:31.087Z,66.66
2018-03-04T05:05:31.020Z,66.47
2018-03-04T05:06:30.936Z,66.38
2018-03-04T05:07:30.877Z,66.85
2018-03-04T05:08:30.807Z,66.56
2018-03-04T05:09:30.751Z,66.38
2018-03-04T05:10:30.653Z,66.19
2018-03-04T05:11:30.638Z,66.19
2018-03-04T05:12:30.533Z,65.61
2018-03-04T05:13:30.448Z,66.19
2018-03-04T05:14:30.369Z,66.47
2018-03-04T05:15:30.320Z,66.66
2018-03-04T05:16:30.249Z,66.56
2018-03-04T05:17:30.183Z,66.70
2018-03-04T05:18:30.096Z,66.09
2018-03-04T05:19:30.027Z,65.80
2018-03-04T05:20:29.949Z,65.14
2018-03-04T05:21:29.875Z,64.75
2018-03-04T05:22:29.812Z,64.85
2018-03-04T05:23:29.769Z,64.28
2018-03-04T05:24:29.697Z,63.32
2018-03-04T05:25:29.632Z,63.03
2018-03-04T05:26:29.548Z,62.37
2018-03-04T05:27:29.457Z,61.98
2018-03-04T05:28:29.406Z,62.08
2018-03-04T05:29:29.334Z,61.89
2018-03-04T05:30:29.253Z,61.98
2018-03-04T05:31:29.194Z,62.18
2018-03-04T05:32:29.114Z,61.41
2018-03-04T05:33:29.039Z,61.89
2018-03-04T05:34:28.971Z,61.69
2018-03-04T05:35:28.915Z,62.27
2018-03-04T05:36:28.836Z,62.37
2018-03-04T05:37:28.786Z,61.98
2018-03-04T05:38:28.706Z,62.08
2018-03-04T05:39:28.643Z,62.37
2018-03-04T05:40:28.543Z,61.69
2018-03-04T05:41:28.474Z,61.60
2018-03-04T05:42:28.429Z,61.22
2018-03-04T05:43:28.334Z,60.36
2018-03-04T05:44:28.280Z,60.84
2018-03-04T05:45:28.209Z,60.36
2018-03-04T05:46:28.143Z,60.27
2018-03-04T05:47:28.070Z,59.69
2018-03-04T05:48:27.999Z,59.50
2018-03-04T05:49:27.912Z,59.50
2018-03-04T05:50:27.856Z,59.41
2018-03-04T05:51:27.793Z,59.69
2018-03-04T05:52:27.707Z,59.59
2018-03-04T05:53:27.639Z,59.50
2018-03-04T05:54:27.565Z,60.36
2018-03-04T05:55:27.504Z,60.17
2018-03-04T05:56:27.442Z,59.98
2018-03-04T05:57:27.369Z,60.46
2018-03-04T05:58:27.301Z,59.98
2018-03-04T05:59:27.215Z,59.12
2018-03-04T06:00:27.139Z,60.17
2018-03-04T06:01:27.084Z,60.27
2018-03-04T06:02:27.025Z,59.12
2018-03-04T06:03:26.945Z,59.78
2018-03-04T06:04:26.884Z,59.50
2018-03-04T06:05:26.826Z,59.59
2018-03-04T06:06:26.718Z,59.41
2018-03-04T06:07:26.686Z,60.27
2018-03-04T06:08:26.603Z,60.36
2018-03-04T06:09:26.511Z,60.07
2018-03-04T06:10:26.457Z,59.31
2018-03-04T06:11:26.380Z,58.54
2018-03-04T06:12:26.313Z,59.02
2018-03-04T06:13:26.240Z,59.02
2018-03-04T06:14:26.186Z,58.73
2018-03-04T06:15:26.098Z,58.54
2018-03-04T06:16:26.058Z,58.93
2018-03-04T06:17:25.968Z,59.31
2018-03-04T06:18:25.887Z,59.31
2018-03-04T06:19:25.817Z,59.15
2018-03-04T06:20:25.765Z,58.93
2018-03-04T06:21:25.681Z,58.76
2018-03-04T06:22:25.629Z,58.95
2018-03-04T06:23:25.543Z,57.71
2018-03-04T06:24:25.473Z,56.85
2018-03-04T06:25:25.401Z,57.62
2018-03-04T06:26:25.346Z,57.14
2018-03-04T06:27:25.257Z,56.35
2018-03-04T06:28:25.201Z,55.99
2018-03-04T06:29:25.139Z,55.01
2018-03-04T06:30:25.055Z,55.32
2018-03-04T06:31:24.995Z,54.37
2018-03-04T06:32:24.932Z,54.94
2018-03-04T06:33:24.866Z,55.04
2018-03-04T06:34:24.787Z,55.20
2018-03-04T06:35:24.729Z,54.72
2018-03-04T06:36:24.649Z,54.94
2018-03-04T06:37:24.595Z,54.91
2018-03-04T06:38:24.501Z,55.01
2018-03-04T06:39:24.435Z,55.23
2018-03-04T06:40:24.365Z,55.52
2018-03-04T06:41:24.308Z,56.09
2018-03-04T06:42:24.238Z,56.09
2018-03-04T06:43:24.173Z,56.28
2018-03-04T06:44:24.098Z,56.09
2018-03-04T06:45:24.019Z,56.28
2018-03-04T06:46:23.961Z,57.04
2018-03-04T06:47:23.898Z,57.71
2018-03-04T06:48:23.890Z,57.81
2018-03-04T06:49:23.758Z,57.90
2018-03-04T06:50:23.694Z,57.53
2018-03-04T06:51:23.601Z,58.48
2018-03-04T06:52:23.551Z,58.58
2018-03-04T06:53:23.481Z,57.81
2018-03-04T06:54:23.430Z,58.38
2018-03-04T06:55:23.325Z,58.38
2018-03-04T06:56:23.270Z,57.81
2018-03-04T06:57:23.184Z,57.62
2018-03-04T06:58:23.113Z,57.90
2018-03-04T06:59:23.068Z,58.10
2018-03-04T07:00:22.994Z,58.10
2018-03-04T07:01:22.901Z,57.53
2018-03-04T07:02:22.837Z,58.58
2018-03-04T07:03:22.769Z,58.58
2018-03-04T07:04:22.707Z,57.43
2018-03-04T07:05:22.633Z,57.33
2018-03-04T07:06:22.595Z,57.62
2018-03-04T07:07:22.495Z,57.71
2018-03-04T07:08:22.429Z,57.71
2018-03-04T07:09:22.372Z,58.10
2018-03-04T07:10:22.298Z,58.19
2018-03-04T07:11:22.229Z,57.71
2018-03-04T07:12:22.141Z,57.33
2018-03-04T07:13:22.076Z,57.53
2018-03-04T07:14:22.032Z,56.76
2018-03-04T07:15:21.964Z,57.33
2018-03-04T07:16:21.869Z,58.10
2018-03-04T07:17:21.812Z,58.67
2018-03-04T07:18:21.756Z,57.71
2018-03-04T07:19:21.672Z,58.00
2018-03-04T07:20:21.595Z,57.71
2018-03-04T07:21:21.524Z,58.76
2018-03-04T07:22:21.467Z,58.67
2018-03-04T07:23:21.405Z,58.38
2018-03-04T07:24:21.328Z,58.48
2018-03-04T07:25:21.281Z,56.85
2018-03-04T07:26:21.195Z,57.04
2018-03-04T07:27:21.105Z,55.99
2018-03-04T07:28:21.036Z,56.18
2018-03-04T07:29:20.976Z,56.28
2018-03-04T07:30:20.907Z,55.99
2018-03-04T07:31:20.890Z,55.90
2018-03-04T07:32:20.766Z,54.94
2018-03-04T07:33:20.732Z,54.56
2018-03-04T07:34:20.631Z,54.27
2018-03-04T07:35:20.560Z,53.00
2018-03-04T07:36:20.515Z,53.41
2018-03-04T07:37:20.432Z,52.46
2018-03-04T07:38:20.377Z,50.16
2018-03-04T07:39:20.296Z,50.45
2018-03-04T07:40:20.242Z,50.93
2018-03-04T07:41:20.137Z,49.69
2018-03-04T07:42:20.099Z,49.49
2018-03-04T07:43:20.003Z,52.17
2018-03-04T07:44:19.935Z,54.27
2018-03-04T07:45:19.871Z,53.41
2018-03-04T07:46:19.838Z,56.09
2018-03-04T07:47:19.734Z,55.80
2018-03-04T07:48:19.663Z,55.23
2018-03-04T07:49:19.596Z,56.38
2018-03-04T07:50:19.523Z,59.53
2018-03-04T07:51:19.457Z,60.52
2018-03-04T07:52:19.385Z,61.85
2018-03-04T07:53:19.347Z,60.61
2018-03-04T07:54:19.272Z,61.44
2018-03-04T07:55:19.190Z,64.82
2018-03-04T07:56:19.127Z,64.31
2018-03-04T07:57:19.066Z,63.57
2018-03-04T07:58:18.989Z,64.34
2018-03-04T07:59:18.932Z,64.25
2018-03-04T08:00:18.859Z,64.43
2018-03-04T08:01:18.783Z,64.91
2018-03-04T08:02:18.729Z,65.87
2018-03-04T08:03:18.646Z,67.78
2018-03-04T08:04:18.577Z,69.31
2018-03-04T08:05:18.529Z,69.12
2018-03-04T08:06:18.425Z,69.21
2018-03-04T08:07:18.361Z,69.89
2018-03-04T08:08:18.309Z,70.17
2018-03-04T08:09:18.243Z,70.11
2018-03-04T08:10:18.237Z,70.21
2018-03-04T08:11:18.105Z,70.01
2018-03-04T08:12:18.042Z,70.11
2018-03-04T08:13:17.960Z,69.92
2018-03-04T08:14:17.902Z,70.50
2018-03-04T08:15:17.838Z,70.50
2018-03-04T08:16:17.780Z,70.50
2018-03-04T08:17:17.682Z,70.68
2018-03-04T08:18:17.650Z,70.78
2018-03-04T08:19:17.571Z,70.30
2018-03-04T08:20:17.493Z,70.40
2018-03-04T08:21:17.411Z,71.16
2018-03-04T08:22:17.362Z,70.50
2018-03-04T08:23:17.280Z,70.68
2018-03-04T08:24:17.236Z,70.81
2018-03-04T08:25:17.165Z,71.48
2018-03-04T08:26:17.103Z,70.81
2018-03-04T08:27:17.044Z,70.81
2018-03-04T08:28:16.941Z,70.97
2018-03-04T08:29:16.875Z,71.39
2018-03-04T08:30:16.840Z,70.97
2018-03-04T08:31:16.757Z,71.30
2018-03-04T08:32:16.738Z,70.87
2018-03-04T08:33:16.638Z,71.01
2018-03-04T08:34:16.561Z,71.16
2018-03-04T08:35:16.497Z,70.62
2018-03-04T08:36:16.413Z,70.91
2018-03-04T08:37:16.350Z,70.91
2018-03-04T08:38:16.284Z,71.11
2018-03-04T08:39:16.214Z,70.72
2018-03-04T08:40:16.141Z,71.11
2018-03-04T08:41:16.090Z,71.01
2018-03-04T08:42:16.025Z,71.20
2018-03-04T08:43:15.960Z,71.11
2018-03-04T08:44:15.897Z,71.30
2018-03-04T08:45:15.809Z,71.30
2018-03-04T08:46:15.764Z,71.77
2018-03-04T08:47:15.690Z,71.83
2018-03-04T08:48:15.603Z,71.73
2018-03-04T08:49:15.548Z,71.20
2018-03-04T08:50:15.497Z,71.68
2018-03-04T08:51:15.405Z,71.73
2018-03-04T08:52:15.355Z,71.45
2018-03-04T08:53:15.294Z,71.83
2018-03-04T08:54:15.216Z,71.93
2018-03-04T08:55:15.143Z,71.73
2018-03-04T08:56:15.086Z,71.73
2018-03-04T08:57:15.007Z,72.02
2018-03-04T08:58:14.948Z,71.73
2018-03-04T08:59:14.891Z,71.16
2018-03-04T09:00:14.802Z,71.64
2018-03-04T09:01:14.751Z,72.02
2018-03-04T09:02:14.693Z,71.64
2018-03-04T09:03:14.601Z,71.73
2018-03-04T09:04:14.536Z,71.45
2018-03-04T09:05:14.479Z,71.73
2018-03-04T09:06:14.400Z,71.64
2018-03-04T09:07:14.344Z,72.31
2018-03-04T09:08:14.265Z,72.12
2018-03-04T09:09:14.213Z,71.73
2018-03-04T09:10:14.131Z,72.31
2018-03-04T09:11:14.062Z,72.31
2018-03-04T09:12:14.010Z,72.02
2018-03-04T09:13:13.924Z,72.12
2018-03-04T09:14:13.874Z,71.93
2018-03-04T09:15:13.816Z,71.83
2018-03-04T09:16:13.730Z,71.45
2018-03-04T09:17:13.676Z,71.45
2018-03-04T09:18:13.603Z,71.55
2018-03-04T09:19:13.546Z,72.31
2018-03-04T09:20:13.459Z,72.02
2018-03-04T09:21:13.404Z,72.22
2018-03-04T09:22:13.326Z,72.02
2018-03-04T09:23:13.267Z,71.93
2018-03-04T09:24:13.188Z,72.16
2018-03-04T09:25:13.149Z,71.73
2018-03-04T09:26:13.050Z,71.64
2018-03-04T09:27:13.003Z,71.58
2018-03-04T09:28:12.916Z,70.97
2018-03-04T09:29:12.846Z,70.87
2018-03-04T09:30:12.780Z,70.68
2018-03-04T09:31:12.715Z,71.64
2018-03-04T09:32:12.648Z,71.64
2018-03-04T09:33:12.615Z,71.16
2018-03-04T09:34:12.555Z,70.87
2018-03-04T09:35:12.467Z,71.16
2018-03-04T09:36:12.378Z,71.16
2018-03-04T09:37:12.329Z,70.40
2018-03-04T09:38:12.277Z,70.34
2018-03-04T09:39:12.197Z,70.34
2018-03-04T09:40:12.117Z,70.43
2018-03-04T09:41:12.040Z,70.40
2018-03-04T09:42:11.977Z,70.40
2018-03-04T09:43:11.914Z,70.91
2018-03-04T09:44:11.856Z,71.01
2018-03-04T09:45:11.772Z,70.91
2018-03-04T09:46:11.734Z,70.81
2018-03-04T09:47:11.652Z,70.24
2018-03-04T09:48:11.568Z,70.24
2018-03-04T09:49:11.500Z,70.91
2018-03-04T09:50:11.454Z,70.05
2018-03-04T09:51:11.369Z,70.91
2018-03-04T09:52:11.314Z,70.91
2018-03-04T09:53:11.259Z,70.43
2018-03-04T09:54:11.168Z,71.20
2018-03-04T09:55:11.114Z,71.30
2018-03-04T09:56:11.028Z,71.11
2018-03-04T09:57:10.965Z,70.81
2018-03-04T09:58:10.897Z,70.43
2018-03-04T09:59:10.831Z,70.43
2018-03-04T10:00:10.783Z,70.62
2018-03-04T10:01:10.706Z,70.91
2018-03-04T10:02:10.670Z,71.01
2018-03-04T10:03:10.558Z,70.62
2018-03-04T10:04:10.503Z,71.01
2018-03-04T10:05:10.439Z,71.20
2018-03-04T10:06:10.370Z,70.05
2018-03-04T10:07:10.303Z,70.34
2018-03-04T10:08:10.221Z,70.62
2018-03-04T10:09:10.154Z,71.20
2018-03-04T10:10:10.082Z,71.30
2018-03-04T10:11:10.045Z,70.72
2018-03-04T10:12:09.985Z,70.72
2018-03-04T10:13:09.882Z,71.01
2018-03-04T10:14:09.841Z,71.39
2018-03-04T10:15:09.763Z,70.91
2018-03-04T10:16:09.714Z,70.72
2018-03-04T10:17:09.627Z,71.01
2018-03-04T10:18:09.565Z,71.48
2018-03-04T10:19:09.478Z,71.77
2018-03-04T10:20:09.432Z,71.58
2018-03-04T10:21:09.360Z,71.39
2018-03-04T10:22:09.293Z,71.20
2018-03-04T10:23:09.233Z,70.72
2018-03-04T10:24:09.161Z,70.91
2018-03-04T10:25:09.097Z,70.05
2018-03-04T10:26:09.081Z,70.05
2018-03-04T10:27:08.941Z,70.72
2018-03-04T10:28:08.918Z,70.43
2018-03-04T10:29:08.843Z,70.05
2018-03-04T10:30:08.795Z,70.24
2018-03-04T10:31:08.672Z,69.19
2018-03-04T10:32:08.611Z,70.15
2018-03-04T10:33:08.542Z,69.09
2018-03-04T10:34:08.487Z,68.80
2018-03-04T10:35:08.413Z,68.04
2018-03-04T10:36:08.355Z,68.42
2018-03-04T10:37:08.303Z,68.42
2018-03-04T10:38:08.206Z,68.52
2018-03-04T10:39:08.149Z,68.71
2018-03-04T10:40:08.075Z,68.96
2018-03-04T10:41:08.006Z,68.77
2018-03-04T10:42:07.958Z,70.05
2018-03-04T10:43:07.874Z,70.34
2018-03-04T10:44:07.816Z,70.53
2018-03-04T10:45:07.741Z,70.34
2018-03-04T10:46:07.687Z,71.01
2018-03-04T10:47:07.602Z,70.81
2018-03-04T10:48:07.535Z,70.81
2018-03-04T10:49:07.464Z,70.91
2018-03-04T10:50:07.417Z,69.86
2018-03-04T10:51:07.337Z,69.29
2018-03-04T10:52:07.264Z,68.46
2018-03-04T10:53:07.217Z,68.55
2018-03-04T10:54:07.134Z,68.27
2018-03-04T10:55:07.081Z,68.17
2018-03-04T10:56:07.041Z,67.88
2018-03-04T10:57:06.931Z,67.88
2018-03-04T10:58:06.888Z,68.55
2018-03-04T10:59:06.831Z,68.27
2018-03-04T11:00:06.747Z,67.98
2018-03-04T11:01:06.687Z,68.27
2018-03-04T11:02:06.623Z,68.17
2018-03-04T11:03:06.545Z,68.07
2018-03-04T11:04:06.486Z,68.17
2018-03-04T11:05:06.413Z,67.88
2018-03-04T11:06:06.348Z,68.07
2018-03-04T11:07:06.266Z,67.79
2018-03-04T11:08:06.195Z,67.88
2018-03-04T11:09:06.154Z,67.50
2018-03-04T11:10:06.085Z,66.74
2018-03-04T11:11:06.029Z,67.21
2018-03-04T11:12:05.950Z,67.02
2018-03-04T11:13:05.883Z,67.02
2018-03-04T11:14:05.817Z,67.11
2018-03-04T11:15:05.737Z,67.69
2018-03-04T11:16:05.667Z,67.02
2018-03-04T11:17:05.600Z,67.02
2018-03-04T11:18:05.549Z,67.02
2018-03-04T11:19:05.469Z,66.83
2018-03-04T11:20:05.423Z,67.02
2018-03-04T11:21:05.338Z,67.88
2018-03-04T11:22:05.290Z,67.79
2018-03-04T11:23:05.216Z,67.60
2018-03-04T11:24:05.130Z,67.50
2018-03-04T11:25:05.090Z,67.50
2018-03-04T11:26:05.012Z,67.98
2018-03-04T11:27:04.960Z,67.60
2018-03-04T11:28:04.889Z,68.21
2018-03-04T11:29:04.803Z,67.91
2018-03-04T11:30:04.737Z,67.72
2018-03-04T11:31:04.694Z,68.01
2018-03-04T11:32:04.635Z,67.82
2018-03-04T11:33:04.552Z,67.60
2018-03-04T11:34:04.482Z,67.91
2018-03-04T11:35:04.404Z,67.82
2018-03-04T11:36:04.340Z,68.21
2018-03-04T11:37:04.265Z,67.34
2018-03-04T11:38:04.227Z,68.01
2018-03-04T11:39:04.153Z,68.49
2018-03-04T11:40:04.091Z,67.82
2018-03-04T11:41:04.022Z,68.49
2018-03-04T11:42:03.964Z,68.40
2018-03-04T11:43:03.887Z,68.11
2018-03-04T11:44:03.802Z,68.11
2018-03-04T11:45:03.734Z,67.91
2018-03-04T11:46:03.683Z,67.72
2018-03-04T11:47:03.631Z,67.54
2018-03-04T11:48:03.563Z,67.54
2018-03-04T11:49:03.489Z,67.05
2018-03-04T11:50:03.436Z,67.25
2018-03-04T11:51:03.343Z,67.25
2018-03-04T11:52:03.297Z,67.25
2018-03-04T11:53:03.227Z,66.86
2018-03-04T11:54:03.144Z,67.82
2018-03-04T11:55:03.079Z,67.63
2018-03-04T11:56:03.028Z,67.05
2018-03-04T11:57:02.960Z,67.09
2018-03-04T11:58:02.892Z,66.71
2018-03-04T11:59:02.833Z,66.86
2018-03-04T12:00:02.779Z,66.58
2018-03-04T12:01:02.679Z,66.86
2018-03-04T12:02:02.612Z,66.58
2018-03-04T12:03:02.589Z,66.77
2018-03-04T12:04:02.503Z,66.96
2018-03-04T12:05:02.459Z,66.67
2018-03-04T12:06:02.369Z,66.86
2018-03-04T12:07:02.287Z,66.58
2018-03-04T12:08:02.243Z,66.67
2018-03-04T12:09:02.185Z,66.58
2018-03-04T12:10:02.090Z,66.77
2018-03-04T12:11:02.036Z,66.67
2018-03-04T12:12:01.952Z,67.05
2018-03-04T12:13:01.910Z,66.96
2018-03-04T12:14:01.824Z,66.58
2018-03-04T12:15:01.758Z,66.77
2018-03-04T12:16:01.694Z,66.96
2018-03-04T12:17:01.668Z,66.58
2018-03-04T12:18:01.584Z,66.71
2018-03-04T12:19:01.526Z,66.58
2018-03-04T12:20:01.442Z,66.13
2018-03-04T12:21:01.367Z,65.84
2018-03-04T12:22:01.313Z,65.55
2018-03-04T12:23:01.232Z,66.32
2018-03-04T12:24:01.221Z,65.84
2018-03-04T12:25:01.150Z,64.98
2018-03-04T12:26:01.056Z,65.08
2018-03-04T12:27:00.988Z,65.08
2018-03-04T12:28:00.925Z,65.08
2018-03-04T12:29:00.864Z,65.84
2018-03-04T12:30:00.772Z,66.03
2018-03-04T12:31:00.707Z,65.94
2018-03-04T12:32:00.638Z,66.03
2018-03-04T12:33:00.597Z,66.03
2018-03-04T12:34:00.524Z,65.17
2018-03-04T12:35:00.457Z,65.17
2018-03-04T12:36:00.407Z,64.89
2018-03-04T12:37:00.326Z,65.08
2018-03-04T12:38:00.261Z,65.26
2018-03-04T12:39:00.184Z,65.26
2018-03-04T12:40:00.130Z,65.08
2018-03-04T12:41:00.049Z,65.46
2018-03-04T12:41:59.992Z,65.26
2018-03-04T12:42:59.917Z,64.79
2018-03-04T12:43:59.865Z,65.08
2018-03-04T12:44:59.785Z,64.98
2018-03-04T12:45:59.736Z,65.08
2018-03-04T12:46:59.668Z,64.98
2018-03-04T12:47:59.590Z,65.17
2018-03-04T12:48:59.523Z,65.36
2018-03-04T12:49:59.475Z,64.98
2018-03-04T12:50:59.403Z,65.36
2018-03-04T12:51:59.332Z,65.55